Pat Cenac — WDC2766 — position and weather

sailwx.info

Track history (hours):
 
Tides and Currents Weather Stations Pressure Air Temp Water Temp Dewpoint Dewpoint Depression Visibility Wind Speed Wind Dir Waves Ship Positions

Pat Cenac

Owner: Cenac Boat Rentals, Inc., Houma, LA. More information available from US FCC via Universal Licensing System and Coast Guard Vessel Documentation Center.

Last reported at 2017-Oct-16 23:59 UTC. Time now 2017-Oct-22 06:19 UTC.
Position N 29°34' W 090°43'.

Length 16 m; draft 2 m.

Type: Other ship. MMSI: 366997440.

Date/timePositionNaut miles runAvg speedWind from/ knotsBaromVisibWave heightAir tempDewpointWater temp
2017-Oct-16 23:59N 29°34' W 090°43'1 1.8
2017-Oct-16 23:30N 29°33' W 090°43'1 1.7
2017-Oct-16 23:01N 29°34' W 090°43'1 2.0
2017-Oct-16 22:30N 29°35' W 090°43'2 4.3
2017-Oct-16 22:00N 29°36' W 090°41'4 7.1
2017-Oct-16 21:30N 29°35' W 090°37'1 2.1
2017-Oct-16 21:00N 29°35' W 090°36'2 4.3
2017-Oct-16 20:30N 29°35' W 090°38'3 5.7
2017-Oct-16 20:00N 29°36' W 090°41'2 4.1
2017-Oct-16 19:30N 29°35' W 090°43'  
2017-Oct-08 13:30N 29°34' W 090°43'0 0.0
2017-Oct-08 13:00N 29°34' W 090°43'0 0.0
2017-Oct-08 12:30N 29°34' W 090°43'0 0.0
2017-Oct-08 12:00N 29°34' W 090°43'0 0.0
2017-Oct-08 11:30N 29°34' W 090°43'0 0.0
2017-Oct-08 11:00N 29°34' W 090°43'0 0.0
2017-Oct-08 10:30N 29°34' W 090°43'0 0.0
2017-Oct-08 10:00N 29°34' W 090°43'0 0.0
2017-Oct-08 09:30N 29°34' W 090°43'0 0.0
2017-Oct-08 09:00N 29°34' W 090°43'0 0.0
2017-Oct-08 08:30N 29°34' W 090°43'0 0.0
2017-Oct-08 08:00N 29°34' W 090°43'0 0.0
2017-Oct-08 07:30N 29°34' W 090°43'0 0.0
2017-Oct-08 07:00N 29°34' W 090°43'0 0.0
2017-Oct-08 06:30N 29°34' W 090°43'0 0.0
2017-Oct-08 06:00N 29°34' W 090°43'0 0.0
2017-Oct-08 05:30N 29°34' W 090°43'0 0.0
2017-Oct-08 05:00N 29°34' W 090°43'0 0.0
2017-Oct-08 04:30N 29°34' W 090°43'0 0.0
2017-Oct-08 04:00N 29°34' W 090°43'0 0.0
2017-Oct-08 03:30N 29°34' W 090°43'0 0.0
2017-Oct-08 03:00N 29°34' W 090°43'0 0.0
2017-Oct-08 02:30N 29°34' W 090°43'0 0.0
2017-Oct-08 02:00N 29°34' W 090°43'0 0.0
2017-Oct-08 01:30N 29°34' W 090°43'0 0.0
2017-Oct-08 01:00N 29°34' W 090°43'0 0.0
2017-Oct-08 00:30N 29°34' W 090°43'0 0.0
2017-Oct-08 00:00N 29°34' W 090°43'0 0.0
2017-Oct-07 23:30N 29°34' W 090°43'0 0.0
2017-Oct-07 23:00N 29°34' W 090°43'0 0.0
2017-Oct-07 22:30N 29°34' W 090°43'0 0.0
2017-Oct-07 22:00N 29°34' W 090°43'0 0.0
2017-Oct-07 21:30N 29°34' W 090°43'0 0.0
2017-Oct-07 21:00N 29°34' W 090°43'0 0.0
2017-Oct-07 20:30N 29°34' W 090°43'0 0.0
2017-Oct-07 20:00N 29°34' W 090°43'0 0.0
2017-Oct-07 19:30N 29°34' W 090°43'0 0.0
2017-Oct-07 19:00N 29°34' W 090°43'0 0.0
2017-Oct-07 18:30N 29°34' W 090°43'0 0.0
2017-Oct-07 18:00N 29°34' W 090°43'0 0.0
2017-Oct-07 17:30N 29°34' W 090°43'0 0.0
2017-Oct-07 17:00N 29°34' W 090°43'0 0.0
2017-Oct-07 16:30N 29°34' W 090°43'0 0.0
2017-Oct-07 16:00N 29°34' W 090°43'0 0.0
2017-Oct-07 15:30N 29°34' W 090°43'0 0.0
2017-Oct-07 15:00N 29°34' W 090°43'0 0.0
2017-Oct-07 14:30N 29°34' W 090°43'0 0.0
2017-Oct-07 14:00N 29°34' W 090°43'0 0.0
2017-Oct-07 13:30N 29°34' W 090°43'0 0.0
2017-Oct-07 13:00N 29°34' W 090°43'0 0.0
2017-Oct-07 12:30N 29°34' W 090°43'0 0.0
2017-Oct-07 12:00N 29°34' W 090°43'0 0.0
2017-Oct-07 11:30N 29°34' W 090°43'0 0.0
2017-Oct-07 11:00N 29°34' W 090°43'0 0.0
2017-Oct-07 10:30N 29°34' W 090°43'0 0.0
2017-Oct-07 10:00N 29°34' W 090°43'0 0.0
2017-Oct-07 09:30N 29°34' W 090°43'0 0.0
2017-Oct-07 09:00N 29°34' W 090°43'0 0.0
2017-Oct-07 08:30N 29°34' W 090°43'0 0.0
2017-Oct-07 08:00N 29°34' W 090°43'0 0.0
2017-Oct-07 07:30N 29°34' W 090°43'0 0.0
2017-Oct-07 07:00N 29°34' W 090°43'0 0.0
2017-Oct-07 06:30N 29°34' W 090°43'0 0.0
2017-Oct-07 06:00N 29°34' W 090°43'0 0.0
2017-Oct-07 05:30N 29°34' W 090°43'0 0.0
2017-Oct-07 05:00N 29°34' W 090°43'0 0.0
2017-Oct-07 04:30N 29°34' W 090°43'0 0.0
2017-Oct-07 04:00N 29°34' W 090°43'0 0.0
2017-Oct-07 03:30N 29°34' W 090°43'0 0.0
2017-Oct-07 03:00N 29°34' W 090°43'0 0.0
2017-Oct-07 02:30N 29°34' W 090°43'0 0.0
2017-Oct-07 02:00N 29°34' W 090°43'0 0.0
2017-Oct-07 01:30N 29°34' W 090°43'0 0.0
2017-Oct-07 01:00N 29°34' W 090°43'0 0.0
2017-Oct-07 00:30N 29°34' W 090°43'0 0.0
2017-Oct-07 00:00N 29°34' W 090°43'  
Track history (hours):
 
Tides and Currents Weather Stations Pressure Air Temp Water Temp Dewpoint Dewpoint Depression Visibility Wind Speed Wind Dir Waves Ship Positions

Pat Cenac

Owner: Cenac Boat Rentals, Inc., Houma, LA. More information available from US FCC via Universal Licensing System and Coast Guard Vessel Documentation Center.

Last reported at 2017-Oct-16 23:59 UTC. Time now 2017-Oct-22 06:19 UTC.
Position N 29°34' W 090°43'.

Length 16 m; draft 2 m.

Type: Other ship. MMSI: 366997440.

Date/timePositionNaut miles runAvg speedWind from/ knotsBaromVisibWave heightAir tempDewpointWater temp
2017-Oct-16 23:59N 29°34' W 090°43'1 1.8
2017-Oct-16 23:30N 29°33' W 090°43'1 1.7
2017-Oct-16 23:01N 29°34' W 090°43'1 2.0
2017-Oct-16 22:30N 29°35' W 090°43'2 4.3
2017-Oct-16 22:00N 29°36' W 090°41'4 7.1
2017-Oct-16 21:30N 29°35' W 090°37'1 2.1
2017-Oct-16 21:00N 29°35' W 090°36'2 4.3
2017-Oct-16 20:30N 29°35' W 090°38'3 5.7
2017-Oct-16 20:00N 29°36' W 090°41'2 4.1
2017-Oct-16 19:30N 29°35' W 090°43'  
2017-Oct-08 13:30N 29°34' W 090°43'0 0.0
2017-Oct-08 13:00N 29°34' W 090°43'0 0.0
2017-Oct-08 12:30N 29°34' W 090°43'0 0.0
2017-Oct-08 12:00N 29°34' W 090°43'0 0.0
2017-Oct-08 11:30N 29°34' W 090°43'0 0.0
2017-Oct-08 11:00N 29°34' W 090°43'0 0.0
2017-Oct-08 10:30N 29°34' W 090°43'0 0.0
2017-Oct-08 10:00N 29°34' W 090°43'0 0.0
2017-Oct-08 09:30N 29°34' W 090°43'0 0.0
2017-Oct-08 09:00N 29°34' W 090°43'0 0.0
2017-Oct-08 08:30N 29°34' W 090°43'0 0.0
2017-Oct-08 08:00N 29°34' W 090°43'0 0.0
2017-Oct-08 07:30N 29°34' W 090°43'0 0.0
2017-Oct-08 07:00N 29°34' W 090°43'0 0.0
2017-Oct-08 06:30N 29°34' W 090°43'0 0.0
2017-Oct-08 06:00N 29°34' W 090°43'0 0.0
2017-Oct-08 05:30N 29°34' W 090°43'0 0.0
2017-Oct-08 05:00N 29°34' W 090°43'0 0.0
2017-Oct-08 04:30N 29°34' W 090°43'0 0.0
2017-Oct-08 04:00N 29°34' W 090°43'0 0.0
2017-Oct-08 03:30N 29°34' W 090°43'0 0.0
2017-Oct-08 03:00N 29°34' W 090°43'0 0.0
2017-Oct-08 02:30N 29°34' W 090°43'0 0.0
2017-Oct-08 02:00N 29°34' W 090°43'0 0.0
2017-Oct-08 01:30N 29°34' W 090°43'0 0.0
2017-Oct-08 01:00N 29°34' W 090°43'0 0.0
2017-Oct-08 00:30N 29°34' W 090°43'0 0.0
2017-Oct-08 00:00N 29°34' W 090°43'0 0.0
2017-Oct-07 23:30N 29°34' W 090°43'0 0.0
2017-Oct-07 23:00N 29°34' W 090°43'0 0.0
2017-Oct-07 22:30N 29°34' W 090°43'0 0.0
2017-Oct-07 22:00N 29°34' W 090°43'0 0.0
2017-Oct-07 21:30N 29°34' W 090°43'0 0.0
2017-Oct-07 21:00N 29°34' W 090°43'0 0.0
2017-Oct-07 20:30N 29°34' W 090°43'0 0.0
2017-Oct-07 20:00N 29°34' W 090°43'0 0.0
2017-Oct-07 19:30N 29°34' W 090°43'0 0.0
2017-Oct-07 19:00N 29°34' W 090°43'0 0.0
2017-Oct-07 18:30N 29°34' W 090°43'0 0.0
2017-Oct-07 18:00N 29°34' W 090°43'0 0.0
2017-Oct-07 17:30N 29°34' W 090°43'0 0.0
2017-Oct-07 17:00N 29°34' W 090°43'0 0.0
2017-Oct-07 16:30N 29°34' W 090°43'0 0.0
2017-Oct-07 16:00N 29°34' W 090°43'0 0.0
2017-Oct-07 15:30N 29°34' W 090°43'0 0.0
2017-Oct-07 15:00N 29°34' W 090°43'0 0.0
2017-Oct-07 14:30N 29°34' W 090°43'0 0.0
2017-Oct-07 14:00N 29°34' W 090°43'0 0.0
2017-Oct-07 13:30N 29°34' W 090°43'0 0.0
2017-Oct-07 13:00N 29°34' W 090°43'0 0.0
2017-Oct-07 12:30N 29°34' W 090°43'0 0.0
2017-Oct-07 12:00N 29°34' W 090°43'0 0.0
2017-Oct-07 11:30N 29°34' W 090°43'0 0.0
2017-Oct-07 11:00N 29°34' W 090°43'0 0.0
2017-Oct-07 10:30N 29°34' W 090°43'0 0.0
2017-Oct-07 10:00N 29°34' W 090°43'0 0.0
2017-Oct-07 09:30N 29°34' W 090°43'0 0.0
2017-Oct-07 09:00N 29°34' W 090°43'0 0.0
2017-Oct-07 08:30N 29°34' W 090°43'0 0.0
2017-Oct-07 08:00N 29°34' W 090°43'0 0.0
2017-Oct-07 07:30N 29°34' W 090°43'0 0.0
2017-Oct-07 07:00N 29°34' W 090°43'0 0.0
2017-Oct-07 06:30N 29°34' W 090°43'0 0.0
2017-Oct-07 06:00N 29°34' W 090°43'0 0.0
2017-Oct-07 05:30N 29°34' W 090°43'0 0.0
2017-Oct-07 05:00N 29°34' W 090°43'0 0.0
2017-Oct-07 04:30N 29°34' W 090°43'0 0.0
2017-Oct-07 04:00N 29°34' W 090°43'0 0.0
2017-Oct-07 03:30N 29°34' W 090°43'0 0.0
2017-Oct-07 03:00N 29°34' W 090°43'0 0.0
2017-Oct-07 02:30N 29°34' W 090°43'0 0.0
2017-Oct-07 02:00N 29°34' W 090°43'0 0.0
2017-Oct-07 01:30N 29°34' W 090°43'0 0.0
2017-Oct-07 01:00N 29°34' W 090°43'0 0.0
2017-Oct-07 00:30N 29°34' W 090°43'0 0.0
2017-Oct-07 00:00N 29°34' W 090°43'  

Dump ship's entire track history